Slupsk, Poland

7:20 AM CET on February 08, 2016 (GMT +0100)
IPOMORSK9 | | Change Station
CLOSE
Current Station
Personal Weather Station
Location: Ustka, pomorskie
Elevation: 23 ft
Nearby Weather Stations

Elev 23 ft 54.59 °N, 16.86 °E | Updated 5 seconds ago

Rain
Rain
39.9 °F
Feels Like 33 °F
N
12.1
Wind Variable Wind from North
Gusts 15.9 mph

Today
High -- | Low -- °F
--% Chance of Precip.
Yesterday
High -- | Low -- °F
Precip. -- in
Pressure 29.59 in
Visibility -9999.0 miles
Clouds
Windchill 33 °F
Dew Point 39 °F
Humidity 96%
Rainfall 0.02 in
Snow Depth Not available.
7:28 AM 4:44 PM
Waning Crescent, 0% visible
METAR EPGD 080600Z 19009KT 160V220 CAVOK 03/02 Q1002
Pressure 29.59 in
Visibility -9999.0 miles
Clouds
Windchill 33 °F
Dew Point 39 °F
Humidity 96%
Rainfall 0.02 in
Snow Depth Not available.
7:28 AM 4:44 PM
Waning Crescent, 0% visible
METAR EPGD 080600Z 19009KT 160V220 CAVOK 03/02 Q1002

10-Day Weather Forecast

Almanac

Astronomy

Feb. 08, 2016 Rise Set
Actual Time
Civil Twilight
Nautical Twilight
Astronomical Twilight
Moon
Length of Visible Light
Length of Day
Tomorrow will be .
, % of the Moon is Illuminated

Today's Extremes

Country Highs Country Lows

Community

WunderPhotos

Upload Photos

1,891,393 photos uploaded!

WunderBlog® & News

Nearby

Air Quality

  Air Quality AQ Index Pollutant
Not available.

Snow Depth

Station Depth Elevation

Earthquake Activity

City Distance Mag. Time & Date
Minimum magnitude displayed is 2.5.

Coastal Water Temperatures

Place Temperature

Stations

Nearby Weather Stations

Station Location Temp. Windchill Dew Point Humidity Wind Precip. Elev Updated Type